Time;durP1;ratioP1;P1;durP2;ratioP2;P2;SDS_P1;SDS_P2;PMS_P1;PMS_P2;Temp;Humidity;BMP_temperature;BMP_pressure;BME280_temperature;BME280_humidity;BME280_pressure;Samples;Min_cycle;Max_cycle;Signal;HPM_P1;HPM_P2
2023/06/13 00:00:09;;;;;;;8.53;6.10;;;21.40;1.00;;;;;;5026276;28;20276;-76
2023/06/13 00:02:37;;;;;;;7.40;5.90;;;21.40;1.00;;;;;;5027017;28;20207;-75
2023/06/13 00:05:05;;;;;;;7.27;5.30;;;21.30;1.00;;;;;;5026308;28;20469;-75
2023/06/13 00:07:32;;;;;;;8.77;5.50;;;21.20;1.00;;;;;;5028297;28;20428;-75
2023/06/13 00:10:00;;;;;;;9.23;6.60;;;21.30;1.00;;;;;;5030739;28;20497;-75
2023/06/13 00:12:26;;;;;;;9.30;5.57;;;21.20;1.00;;;;;;5031748;28;20439;-76
2023/06/13 00:14:52;;;;;;;11.13;5.90;;;21.20;1.00;;;;;;5031578;28;20451;-76
2023/06/13 00:17:20;;;;;;;7.70;5.50;;;21.20;1.00;;;;;;5029887;28;20194;-75
2023/06/13 00:19:46;;;;;;;10.63;5.63;;;21.10;1.00;;;;;;5030976;28;20185;-75
2023/06/13 00:22:14;;;;;;;9.73;5.67;;;21.10;1.00;;;;;;5021058;28;20969;-75
2023/06/13 00:24:43;;;;;;;7.90;5.07;;;21.10;1.00;;;;;;5030342;28;20598;-76
2023/06/13 00:27:10;;;;;;;8.00;5.50;;;21.20;1.00;;;;;;5029718;28;21024;-74
2023/06/13 00:29:35;;;;;;;8.23;5.83;;;21.00;1.00;;;;;;5029828;28;20447;-75
2023/06/13 00:32:01;;;;;;;8.30;5.57;;;21.00;1.00;;;;;;5029861;28;20511;-75
2023/06/13 00:34:26;;;;;;;7.10;5.73;;;20.90;1.00;;;;;;5030301;28;20211;-76
2023/06/13 00:36:53;;;;;;;9.60;6.00;;;21.10;1.00;;;;;;5031074;28;20192;-75
2023/06/13 00:39:19;;;;;;;7.87;5.30;;;20.90;1.00;;;;;;5031004;28;20798;-75
2023/06/13 00:41:45;;;;;;;9.17;5.50;;;20.90;1.00;;;;;;5030510;28;20453;-75
2023/06/13 00:44:10;;;;;;;13.30;5.80;;;20.80;1.00;;;;;;5030494;28;20217;-75
2023/06/13 00:46:36;;;;;;;6.73;4.97;;;20.80;1.00;;;;;;5030974;28;20184;-75
2023/06/13 00:49:03;;;;;;;9.57;5.87;;;20.80;1.00;;;;;;5029428;28;20536;-75
2023/06/13 00:51:31;;;;;;;7.33;4.90;;;20.80;1.00;;;;;;5030889;28;20603;-75
2023/06/13 00:53:59;;;;;;;7.53;5.77;;;20.70;1.00;;;;;;5030349;28;20435;-75
2023/06/13 00:56:28;;;;;;;7.90;5.73;;;20.70;1.00;;;;;;5028824;28;20934;-75
2023/06/13 00:59:02;;;;;;;7.73;4.97;;;20.70;1.00;;;;;;5029573;28;20424;-75
2023/06/13 01:01:28;;;;;;;8.53;5.30;;;20.60;1.00;;;;;;5026785;28;20436;-75
2023/06/13 01:03:55;;;;;;;10.53;5.87;;;20.60;1.00;;;;;;5027304;28;20462;-75
2023/06/13 01:06:24;;;;;;;14.30;5.80;;;20.60;1.00;;;;;;5022370;28;20184;-76
2023/06/13 01:08:51;;;;;;;7.20;5.10;;;20.50;1.00;;;;;;5030615;28;20431;-75
2023/06/13 01:11:40;;;;;;;8.17;4.83;;;20.50;1.00;;;;;;5030404;28;20416;-76
2023/06/13 01:14:20;;;;;;;9.30;5.40;;;20.50;1.00;;;;;;5030613;28;20448;-76
2023/06/13 01:16:50;;;;;;;10.70;6.37;;;20.40;1.00;;;;;;5028719;28;20510;-75
2023/06/13 01:19:41;;;;;;;7.17;5.33;;;20.70;1.00;;;;;;5028396;28;21193;-75
2023/06/13 01:22:09;;;;;;;6.90;4.80;;;20.40;1.00;;;;;;5022915;28;20420;-75
2023/06/13 01:24:52;;;;;;;7.97;5.67;;;20.40;1.00;;;;;;5030307;28;20958;-76
2023/06/13 01:27:18;;;;;;;7.43;5.10;;;20.30;1.00;;;;;;5030401;28;20426;-75
2023/06/13 01:29:45;;;;;;;8.43;5.27;;;20.30;1.00;;;;;;5030197;28;21047;-75
2023/06/13 01:32:11;;;;;;;8.30;5.47;;;20.30;1.00;;;;;;5029168;28;20231;-76
2023/06/13 01:34:39;;;;;;;7.90;4.90;;;20.40;1.00;;;;;;5028438;28;20514;-76
2023/06/13 01:37:05;;;;;;;8.07;5.40;;;20.20;1.00;;;;;;5028705;28;20489;-75
2023/06/13 01:39:34;;;;;;;10.07;5.50;;;20.20;1.00;;;;;;5027786;28;20471;-75
2023/06/13 01:42:00;;;;;;;11.43;5.03;;;20.20;1.00;;;;;;5028614;28;20435;-76
2023/06/13 01:44:25;;;;;;;7.70;5.33;;;20.20;1.00;;;;;;5030016;28;20464;-76
2023/06/13 01:47:20;;;;;;;14.17;5.57;;;20.10;1.00;;;;;;5029742;28;20400;-75
2023/06/13 01:49:53;;;;;;;8.47;4.77;;;20.10;1.00;;;;;;5023852;28;20188;-75
2023/06/13 01:52:37;;;;;;;10.40;5.70;;;20.00;1.00;;;;;;5013940;28;20427;-75
2023/06/13 01:55:08;;;;;;;6.20;4.80;;;20.00;1.00;;;;;;5027507;28;21049;-75
2023/06/13 01:57:43;;;;;;;6.70;4.40;;;20.00;1.00;;;;;;5029514;28;20432;-76
2023/06/13 02:00:14;;;;;;;7.43;5.37;;;20.00;1.00;;;;;;5027639;28;20442;-75
2023/06/13 02:02:41;;;;;;;8.97;5.60;;;19.90;1.00;;;;;;5028125;28;20491;-75
2023/06/13 02:05:08;;;;;;;6.00;4.83;;;20.70;1.00;;;;;;5026592;28;20474;-76
2023/06/13 02:07:36;;;;;;;7.20;5.10;;;19.90;1.00;;;;;;5029523;28;20428;-76
2023/06/13 02:10:06;;;;;;;6.93;5.40;;;19.80;1.00;;;;;;5028245;28;20444;-75
2023/06/13 02:12:32;;;;;;;7.80;5.10;;;19.80;1.00;;;;;;5029747;28;20427;-75
2023/06/13 02:14:59;;;;;;;7.93;4.93;;;19.80;1.00;;;;;;5028808;28;20460;-75
2023/06/13 02:17:25;;;;;;;7.80;5.30;;;19.70;1.00;;;;;;5029374;28;20428;-76
2023/06/13 02:19:50;;;;;;;9.57;5.13;;;19.70;1.00;;;;;;5028725;28;20432;-75
2023/06/13 02:22:16;;;;;;;7.70;5.50;;;19.70;1.00;;;;;;5028998;28;20438;-75
2023/06/13 02:24:42;;;;;;;6.43;4.90;;;19.70;1.00;;;;;;5027990;28;20212;-75
2023/06/13 02:27:08;;;;;;;7.17;5.17;;;20.10;1.00;;;;;;5028858;28;20682;-75
2023/06/13 02:29:35;;;;;;;7.50;5.30;;;19.60;1.00;;;;;;5029306;28;20185;-75
2023/06/13 02:32:01;;;;;;;10.73;5.20;;;21.30;1.00;;;;;;5026456;28;20440;-75
2023/06/13 02:34:26;;;;;;;9.63;5.20;;;19.60;1.00;;;;;;5029270;28;20450;-75
2023/06/13 02:36:52;;;;;;;8.93;4.80;;;19.60;1.00;;;;;;5028816;28;20242;-75
2023/06/13 02:39:17;;;;;;;6.37;5.10;;;19.60;1.00;;;;;;5028748;28;20189;-75
2023/06/13 02:41:43;;;;;;;7.87;5.20;;;19.50;1.00;;;;;;5028573;28;20220;-75
2023/06/13 02:44:08;;;;;;;6.80;4.97;;;19.50;1.00;;;;;;5027460;28;20224;-75
2023/06/13 02:46:34;;;;;;;11.43;5.60;;;19.50;1.00;;;;;;5028425;28;20185;-75
2023/06/13 02:48:59;;;;;;;7.80;5.20;;;19.50;1.00;;;;;;5028736;28;20359;-75
2023/06/13 02:51:25;;;;;;;7.40;5.00;;;19.40;1.00;;;;;;5028558;28;20182;-75
2023/06/13 02:53:51;;;;;;;11.03;5.27;;;19.40;1.00;;;;;;5027699;28;20276;-75
2023/06/13 02:56:16;;;;;;;6.97;4.93;;;19.40;1.00;;;;;;5026546;28;20539;-75
2023/06/13 02:58:42;;;;;;;6.67;5.03;;;19.30;1.00;;;;;;5028442;28;20281;-76
2023/06/13 03:01:08;;;;;;;7.17;4.97;;;19.30;1.00;;;;;;5028368;28;20247;-75
2023/06/13 03:03:34;;;;;;;8.10;5.23;;;19.30;1.00;;;;;;5028926;28;21069;-75
2023/06/13 03:06:01;;;;;;;7.60;5.20;;;19.30;1.00;;;;;;5028424;28;20527;-76
2023/06/13 03:08:27;;;;;;;8.00;5.23;;;19.20;1.00;;;;;;5027352;28;20231;-75
2023/06/13 03:10:53;;;;;;;10.00;5.37;;;19.20;1.00;;;;;;5026809;28;20428;-75
2023/06/13 03:13:19;;;;;;;8.80;5.13;;;19.20;1.00;;;;;;5028548;28;20177;-76
2023/06/13 03:15:47;;;;;;;6.53;4.50;;;19.00;1.00;;;;;;5028606;28;20440;-75
2023/06/13 03:18:17;;;;;;;19.63;5.50;;;19.10;1.00;;;;;;5028172;28;20439;-75
2023/06/13 03:20:45;;;;;;;8.10;4.90;;;19.20;1.00;;;;;;5025385;28;20978;-78
2023/06/13 03:23:12;;;;;;;7.47;5.20;;;19.10;1.00;;;;;;5028316;28;21042;-76
2023/06/13 03:25:40;;;;;;;6.67;5.27;;;19.10;1.00;;;;;;5028411;28;20440;-75
2023/06/13 03:28:06;;;;;;;8.40;5.30;;;19.00;1.00;;;;;;5026964;28;20471;-75
2023/06/13 03:30:31;;;;;;;9.53;5.70;;;19.00;1.00;;;;;;5027846;28;20459;-74
2023/06/13 03:32:57;;;;;;;7.57;5.37;;;19.00;1.00;;;;;;5028508;28;20181;-74
2023/06/13 03:35:22;;;;;;;12.23;5.07;;;19.00;1.00;;;;;;5026684;28;20240;-75
2023/06/13 03:37:48;;;;;;;9.70;5.30;;;19.00;1.00;;;;;;5026958;28;20612;-75
2023/06/13 03:40:13;;;;;;;7.07;5.53;;;19.00;1.00;;;;;;5027467;28;20190;-75
2023/06/13 03:42:39;;;;;;;11.07;5.20;;;18.90;1.00;;;;;;5028638;28;20213;-75
2023/06/13 03:45:05;;;;;;;7.87;5.57;;;18.90;1.00;;;;;;5031018;28;20201;-78
2023/06/13 03:47:30;;;;;;;8.10;5.40;;;18.90;1.00;;;;;;5032240;28;20193;-75
2023/06/13 03:49:56;;;;;;;7.83;5.20;;;19.00;1.00;;;;;;5032337;28;20185;-75
2023/06/13 03:52:21;;;;;;;6.67;5.67;;;18.90;1.00;;;;;;5028710;28;20224;-75
2023/06/13 03:54:47;;;;;;;9.30;5.27;;;18.90;1.00;;;;;;5032008;28;20602;-75
2023/06/13 03:57:12;;;;;;;9.30;5.60;;;18.90;1.00;;;;;;5030438;28;20212;-75
2023/06/13 03:59:38;;;;;;;10.87;5.80;;;18.90;1.00;;;;;;5032516;28;20376;-74
2023/06/13 04:02:04;;;;;;;12.00;5.40;;;18.90;1.00;;;;;;5031580;28;20272;-76
2023/06/13 04:04:32;;;;;;;7.30;5.67;;;18.90;1.00;;;;;;5032073;28;20412;-76
2023/06/13 04:06:57;;;;;;;8.63;5.30;;;18.80;1.00;;;;;;5029963;28;20185;-75
2023/06/13 04:09:23;;;;;;;8.50;4.60;;;18.90;1.00;;;;;;5030256;28;20436;-76
2023/06/13 04:11:49;;;;;;;6.10;4.60;;;18.80;1.00;;;;;;5031669;28;20185;-76
2023/06/13 04:14:14;;;;;;;10.90;5.23;;;18.80;1.00;;;;;;5031150;28;20204;-76
2023/06/13 04:16:40;;;;;;;8.27;5.23;;;18.80;1.00;;;;;;5031628;28;20269;-76
2023/06/13 04:19:07;;;;;;;10.60;5.77;;;18.90;1.00;;;;;;5031547;28;20239;-76
2023/06/13 04:21:32;;;;;;;9.33;5.40;;;18.90;1.00;;;;;;5031604;28;20193;-76
2023/06/13 04:23:58;;;;;;;9.00;5.00;;;18.90;1.00;;;;;;5030853;28;20460;-73
2023/06/13 04:26:23;;;;;;;7.40;5.00;;;18.90;1.00;;;;;;5030203;28;20275;-76
2023/06/13 04:28:50;;;;;;;9.43;5.43;;;18.90;1.00;;;;;;5030448;28;20173;-72
2023/06/13 04:31:17;;;;;;;6.50;4.97;;;19.00;1.00;;;;;;5030594;28;20182;-76
2023/06/13 04:33:44;;;;;;;7.00;5.37;;;19.00;1.00;;;;;;5031644;28;20420;-76
2023/06/13 04:36:13;;;;;;;7.47;5.10;;;19.00;1.00;;;;;;5030925;28;20918;-75
2023/06/13 04:38:39;;;;;;;6.67;5.30;;;19.00;1.00;;;;;;5031659;28;20424;-76
2023/06/13 04:41:09;;;;;;;9.67;5.93;;;19.00;1.00;;;;;;5027287;28;20493;-75
2023/06/13 04:43:40;;;;;;;9.03;4.93;;;19.00;1.00;;;;;;5031271;28;21201;-75
2023/06/13 04:46:10;;;;;;;10.07;5.33;;;19.00;1.00;;;;;;5030423;28;20459;-76
2023/06/13 04:48:35;;;;;;;5.53;4.60;;;19.00;1.00;;;;;;5029102;28;20428;-77
2023/06/13 04:51:02;;;;;;;7.73;4.93;;;19.00;1.00;;;;;;5028740;28;20439;-75
2023/06/13 04:53:29;;;;;;;9.93;5.40;;;19.00;1.00;;;;;;5030675;28;20679;-76
2023/06/13 04:55:55;;;;;;;10.07;5.00;;;19.00;1.00;;;;;;5029802;28;20459;-76
2023/06/13 04:58:23;;;;;;;7.40;5.53;;;19.10;1.00;;;;;;5030590;28;20431;-76
2023/06/13 05:00:50;;;;;;;7.20;5.40;;;19.10;1.00;;;;;;5027943;28;20889;-76
2023/06/13 05:03:16;;;;;;;13.20;5.30;;;19.10;1.00;;;;;;5025861;28;20556;-75
2023/06/13 05:05:45;;;;;;;10.10;5.53;;;19.10;1.00;;;;;;5030469;28;21098;-76
2023/06/13 05:08:14;;;;;;;14.03;5.23;;;19.10;1.00;;;;;;5030682;28;20503;-76
2023/06/13 05:10:41;;;;;;;10.33;5.10;;;19.20;1.00;;;;;;5028952;28;20443;-75
2023/06/13 05:13:06;;;;;;;9.53;5.50;;;19.20;1.00;;;;;;5030266;28;20475;-75
2023/06/13 05:15:32;;;;;;;8.60;5.30;;;19.20;1.00;;;;;;5027682;28;20963;-76
2023/06/13 05:17:58;;;;;;;5.80;5.00;;;19.30;1.00;;;;;;5029530;28;20204;-76
2023/06/13 05:20:26;;;;;;;8.37;5.47;;;19.30;1.00;;;;;;5022514;28;20777;-76
2023/06/13 05:22:53;;;;;;;7.37;5.30;;;19.50;1.00;;;;;;5030157;28;20525;-75
2023/06/13 05:25:19;;;;;;;7.27;5.37;;;19.30;1.00;;;;;;5028226;28;20522;-75
2023/06/13 05:27:45;;;;;;;7.83;5.20;;;19.30;1.00;;;;;;5030203;28;20432;-76
2023/06/13 05:30:11;;;;;;;10.30;5.53;;;19.40;1.00;;;;;;5027730;28;20440;-74
2023/06/13 05:32:37;;;;;;;7.80;4.90;;;19.40;1.00;;;;;;5030100;28;20656;-76
2023/06/13 05:35:03;;;;;;;7.10;4.70;;;19.40;1.00;;;;;;5029370;28;20980;-75
2023/06/13 05:37:29;;;;;;;10.47;5.50;;;19.50;1.00;;;;;;5029997;28;20633;-75
2023/06/13 05:39:55;;;;;;;7.20;5.00;;;19.60;1.00;;;;;;5023442;28;20220;-74
2023/06/13 05:42:21;;;;;;;6.83;5.07;;;21.10;1.00;;;;;;5029749;28;20459;-76
2023/06/13 05:44:47;;;;;;;9.87;4.83;;;19.60;1.00;;;;;;5029583;28;20209;-75
2023/06/13 05:47:12;;;;;;;7.10;5.10;;;19.70;1.00;;;;;;5029802;28;20268;-77
2023/06/13 05:49:38;;;;;;;10.87;5.00;;;19.90;1.00;;;;;;5029994;28;20177;-76
2023/06/13 05:52:04;;;;;;;9.83;5.30;;;19.80;1.00;;;;;;5028497;28;20866;-76
2023/06/13 05:54:30;;;;;;;7.50;4.80;;;19.90;1.00;;;;;;5028255;28;20282;-76
2023/06/13 05:56:56;;;;;;;12.13;4.90;;;19.90;1.00;;;;;;5028220;28;20432;-75
2023/06/13 05:59:21;;;;;;;6.60;5.20;;;22.30;1.00;;;;;;5029889;28;20435;-75
2023/06/13 06:01:47;;;;;;;8.20;5.00;;;20.00;1.00;;;;;;5030406;28;20537;-74
2023/06/13 06:04:12;;;;;;;5.73;4.50;;;20.10;1.00;;;;;;5036292;28;20216;-75
2023/06/13 06:06:38;;;;;;;7.20;4.70;;;20.10;1.00;;;;;;5028595;28;20660;-74
2023/06/13 06:09:04;;;;;;;6.97;5.47;;;20.00;1.00;;;;;;5029895;28;20941;-75
2023/06/13 06:11:31;;;;;;;8.30;5.13;;;20.10;1.00;;;;;;5030080;28;20189;-75
2023/06/13 06:13:56;;;;;;;10.73;5.40;;;20.10;1.00;;;;;;5029580;28;20259;-75
2023/06/13 06:16:22;;;;;;;6.80;4.90;;;20.10;1.00;;;;;;5034654;28;20428;-75
2023/06/13 06:18:48;;;;;;;9.30;5.40;;;20.20;1.00;;;;;;5030340;28;20299;-75
2023/06/13 06:21:14;;;;;;;6.90;4.87;;;20.20;1.00;;;;;;5016797;28;20193;-79
2023/06/13 06:23:42;;;;;;;11.85;4.55;;;20.30;1.00;;;;;;5022721;28;20882;-78
2023/06/13 06:26:08;;;;;;;7.87;5.23;;;20.50;1.00;;;;;;5020774;28;20205;-79
2023/06/13 06:28:34;;;;;;;7.47;5.20;;;20.50;1.00;;;;;;5020914;28;20430;-78
2023/06/13 06:31:00;;;;;;;8.97;4.97;;;20.60;1.00;;;;;;5024352;28;20440;-77
2023/06/13 06:33:26;;;;;;;8.80;5.43;;;20.70;1.00;;;;;;5028799;28;20281;-74
2023/06/13 06:35:52;;;;;;;6.40;4.90;;;20.70;1.00;;;;;;5028534;28;20463;-74
2023/06/13 06:38:18;;;;;;;9.27;5.10;;;20.60;1.00;;;;;;5028494;28;20444;-73
2023/06/13 06:40:44;;;;;;;14.10;5.30;;;20.60;1.00;;;;;;5018516;28;20196;-77
2023/06/13 06:43:10;;;;;;;7.53;5.10;;;20.70;1.00;;;;;;5023018;28;20308;-78
2023/06/13 06:45:35;;;;;;;7.00;4.90;;;20.80;1.00;;;;;;5024360;28;20564;-78
2023/06/13 06:48:01;;;;;;;7.40;5.43;;;20.80;1.00;;;;;;5023674;28;20435;-75
2023/06/13 06:50:27;;;;;;;11.10;5.40;;;20.90;1.00;;;;;;5026037;28;20268;-75
2023/06/13 06:52:52;;;;;;;7.00;5.20;;;21.00;1.00;;;;;;5029641;28;20189;-74
2023/06/13 06:55:18;;;;;;;8.67;5.10;;;21.10;1.00;;;;;;5028571;28;20695;-74
2023/06/13 06:57:44;;;;;;;7.97;5.10;;;21.10;1.00;;;;;;5028199;28;20188;-76
2023/06/13 07:00:14;;;;;;;7.40;4.60;;;21.10;1.00;;;;;;5020944;28;20197;-76
2023/06/13 07:02:43;;;;;;;6.23;4.70;;;21.10;1.00;;;;;;5024022;28;20333;-74
2023/06/13 07:05:09;;;;;;;6.37;5.17;;;21.20;1.00;;;;;;5027110;28;20976;-73
2023/06/13 07:07:35;;;;;;;7.80;5.30;;;21.20;1.00;;;;;;5024791;28;20439;-75
2023/06/13 07:10:01;;;;;;;11.13;5.23;;;21.40;1.00;;;;;;5023647;28;20204;-73
2023/06/13 07:12:26;;;;;;;7.03;5.00;;;21.50;1.00;;;;;;5026133;28;20934;-75
2023/06/13 07:14:52;;;;;;;7.87;4.90;;;21.70;1.00;;;;;;5029187;28;20502;-75
2023/06/13 07:17:17;;;;;;;8.23;5.20;;;21.80;1.00;;;;;;5028893;28;20181;-73
2023/06/13 07:19:43;;;;;;;8.30;5.07;;;22.00;1.00;;;;;;5032763;28;20181;-75
2023/06/13 07:22:08;;;;;;;10.27;5.33;;;22.10;1.00;;;;;;5033074;28;20537;-75
2023/06/13 07:24:34;;;;;;;8.73;4.90;;;22.40;1.00;;;;;;5033430;28;20223;-76
2023/06/13 07:26:59;;;;;;;7.37;4.80;;;22.30;1.00;;;;;;5033152;28;20675;-77
2023/06/13 07:29:25;;;;;;;6.90;4.87;;;22.40;1.00;;;;;;5025192;28;20181;-77
2023/06/13 07:31:50;;;;;;;7.67;5.13;;;22.60;1.00;;;;;;5025496;28;20647;-75
2023/06/13 07:34:16;;;;;;;7.37;5.03;;;22.70;1.00;;;;;;5031074;28;20201;-75
2023/06/13 07:36:42;;;;;;;7.20;5.13;;;22.90;1.00;;;;;;5033315;28;20291;-76
2023/06/13 07:39:14;;;;;;;9.67;5.00;;;23.50;1.00;;;;;;5032424;28;20181;-76
2023/06/13 07:41:39;;;;;;;5.77;4.60;;;23.20;1.00;;;;;;5032267;28;20189;-76
2023/06/13 07:44:06;;;;;;;11.20;5.50;;;23.30;1.00;;;;;;5030136;28;20478;-74
2023/06/13 07:46:32;;;;;;;9.33;5.50;;;23.50;1.00;;;;;;5032045;28;20250;-75
2023/06/13 07:48:58;;;;;;;7.53;4.90;;;23.60;1.00;;;;;;5032928;28;20783;-77
2023/06/13 07:51:24;;;;;;;6.40;5.10;;;23.60;1.00;;;;;;5032210;28;20415;-75
2023/06/13 07:53:50;;;;;;;9.60;5.13;;;23.90;1.00;;;;;;5033295;28;20188;-75
2023/06/13 07:56:16;;;;;;;7.70;5.20;;;23.90;1.00;;;;;;5030662;28;20217;-74
2023/06/13 07:58:41;;;;;;;7.50;5.30;;;24.20;1.00;;;;;;5028476;28;20467;-73
2023/06/13 08:01:07;;;;;;;9.50;5.17;;;24.60;1.00;;;;;;5030964;28;20272;-76
2023/06/13 08:03:32;;;;;;;6.77;4.50;;;25.00;1.00;;;;;;5033152;28;20212;-76
2023/06/13 08:05:58;;;;;;;8.50;5.10;;;25.00;1.00;;;;;;5031145;28;20203;-76
2023/06/13 08:08:23;;;;;;;6.50;4.47;;;24.80;1.00;;;;;;5031934;28;20180;-75
2023/06/13 08:10:49;;;;;;;13.07;5.23;;;24.80;1.00;;;;;;5032382;28;20264;-74
2023/06/13 08:13:14;;;;;;;6.07;4.70;;;25.10;1.00;;;;;;5030350;28;20224;-76
2023/06/13 08:15:40;;;;;;;7.70;4.60;;;25.30;1.00;;;;;;5030217;28;20213;-74
2023/06/13 08:18:05;;;;;;;6.60;5.10;;;25.60;1.00;;;;;;5031053;28;20185;-74
2023/06/13 08:20:31;;;;;;;10.10;5.13;;;26.00;1.00;;;;;;5031633;28;20189;-74
2023/06/13 08:22:59;;;;;;;5.97;4.60;;;26.10;1.00;;;;;;5031892;28;20219;-75
2023/06/13 08:25:24;;;;;;;6.77;4.63;;;26.30;1.00;;;;;;5031657;28;20197;-74
2023/06/13 08:27:52;;;;;;;7.20;5.00;;;26.30;1.00;;;;;;5031599;28;20445;-75
2023/06/13 08:30:17;;;;;;;13.87;4.50;;;26.30;1.00;;;;;;5029251;28;20185;-74
2023/06/13 08:32:46;;;;;;;9.23;4.67;;;26.40;1.00;;;;;;5028084;28;20429;-75
2023/06/13 08:35:12;;;;;;;7.90;4.37;;;26.60;1.00;;;;;;5029471;28;20714;-75
2023/06/13 08:37:38;;;;;;;6.30;4.43;;;26.80;1.00;;;;;;5032203;28;20181;-75
2023/06/13 08:40:09;;;;;;;9.77;4.93;;;26.90;1.00;;;;;;5031448;28;20239;-77
2023/06/13 08:42:36;;;;;;;7.60;4.67;;;26.90;1.00;;;;;;5024380;28;20447;-74
2023/06/13 08:45:02;;;;;;;9.53;4.80;;;27.00;1.00;;;;;;5028244;28;20197;-73
2023/06/13 08:47:28;;;;;;;12.90;4.60;;;27.30;1.00;;;;;;5030458;28;20180;-74
2023/06/13 08:49:54;;;;;;;6.57;4.70;;;27.50;1.00;;;;;;5030325;28;20782;-75
2023/06/13 08:52:20;;;;;;;7.67;5.03;;;27.70;1.00;;;;;;5030720;28;20185;-74
2023/06/13 08:54:53;;;;;;;6.93;4.70;;;27.80;1.00;;;;;;5031020;28;20205;-72
2023/06/13 08:57:21;;;;;;;6.27;4.93;;;27.90;1.00;;;;;;5031286;28;20192;-75
2023/06/13 08:59:49;;;;;;;7.80;5.40;;;28.00;1.00;;;;;;5028904;28;20688;-75
2023/06/13 09:02:17;;;;;;;6.83;4.57;;;28.10;1.00;;;;;;5027313;28;20189;-76
2023/06/13 09:04:45;;;;;;;9.20;4.80;;;28.30;1.00;;;;;;5028761;28;20209;-75
2023/06/13 09:07:12;;;;;;;7.50;5.30;;;28.90;1.00;;;;;;5030572;28;20188;-75
2023/06/13 09:09:39;;;;;;;8.60;4.70;;;29.20;1.00;;;;;;5030557;28;20192;-75
2023/06/13 09:12:06;;;;;;;6.47;4.33;;;29.70;1.00;;;;;;5027836;28;20173;-76
2023/06/13 09:14:32;;;;;;;6.05;4.38;;;30.70;1.00;;;;;;5027758;28;20205;-75
2023/06/13 09:16:58;;;;;;;10.38;4.20;;;31.30;1.00;;;;;;5030894;28;20188;-74
2023/06/13 09:19:24;;;;;;;6.45;4.80;;;32.20;1.00;;;;;;5029801;28;20255;-76
2023/06/13 09:21:50;;;;;;;7.18;4.32;;;32.90;1.00;;;;;;5030940;28;20185;-75
2023/06/13 09:24:16;;;;;;;6.05;4.60;;;33.50;1.00;;;;;;5024442;28;20205;-75
2023/06/13 09:26:43;;;;;;;11.43;4.78;;;34.00;1.00;;;;;;5028663;28;20181;-75
2023/06/13 09:29:09;;;;;;;6.30;4.78;;;34.30;1.00;;;;;;5030194;28;20216;-75
2023/06/13 09:31:38;;;;;;;7.93;4.32;;;34.40;1.00;;;;;;5027485;28;20185;-76
2023/06/13 09:34:07;;;;;;;8.60;4.60;;;34.30;1.00;;;;;;5030123;28;20181;-75
2023/06/13 09:36:38;;;;;;;7.20;4.55;;;34.30;1.00;;;;;;5028231;28;20686;-75
2023/06/13 09:39:04;;;;;;;6.20;4.25;;;34.50;1.00;;;;;;5026256;28;20232;-74
2023/06/13 09:41:32;;;;;;;5.50;4.40;;;34.50;1.00;;;;;;5029572;28;20194;-76
2023/06/13 09:44:05;;;;;;;11.32;5.15;;;34.30;1.00;;;;;;5028104;28;20205;-77
2023/06/13 09:46:36;;;;;;;10.05;4.63;;;34.60;1.00;;;;;;5026843;28;20203;-74
2023/06/13 09:49:02;;;;;;;6.00;4.35;;;34.40;1.00;;;;;;5021955;28;20558;-77
2023/06/13 09:51:29;;;;;;;5.55;4.20;;;34.90;1.00;;;;;;5029384;28;20181;-75
2023/06/13 09:53:55;;;;;;;7.68;5.03;;;36.40;1.00;;;;;;5028053;28;20655;-76
2023/06/13 09:56:22;;;;;;;7.78;4.80;;;36.30;1.00;;;;;;5028887;28;20224;-76
2023/06/13 09:58:49;;;;;;;9.00;4.53;;;36.20;1.00;;;;;;5028174;28;20184;-75
2023/06/13 10:01:17;;;;;;;5.22;4.05;;;36.30;1.00;;;;;;5030250;28;20185;-75
2023/06/13 10:03:43;;;;;;;5.45;4.00;;;36.40;1.00;;;;;;5030240;28;20284;-76
2023/06/13 10:06:09;;;;;;;7.35;4.13;;;37.30;1.00;;;;;;5029901;28;20201;-75
2023/06/13 10:08:35;;;;;;;7.60;4.50;;;38.20;1.00;;;;;;5027805;28;20177;-75
2023/06/13 10:11:22;;;;;;;8.18;4.43;;;38.10;1.00;;;;;;5028676;28;20173;-75
2023/06/13 10:13:59;;;;;;;8.05;4.32;;;37.90;1.00;;;;;;5024626;28;20184;-76
2023/06/13 10:16:27;;;;;;;10.40;4.40;;;37.90;1.00;;;;;;5029620;28;20427;-76
2023/06/13 10:18:55;;;;;;;6.55;4.60;;;37.80;1.00;;;;;;5030038;28;20193;-73
2023/06/13 10:21:22;;;;;;;6.85;4.47;;;37.40;1.00;;;;;;5030013;28;20195;-78
2023/06/13 10:23:49;;;;;;;6.25;4.28;;;38.50;1.00;;;;;;5030520;28;20486;-76
2023/06/13 10:26:34;;;;;;;7.95;4.60;;;38.40;1.00;;;;;;5026958;28;20204;-77
2023/06/13 10:29:09;;;;;;;5.40;4.57;;;39.10;1.00;;;;;;5029531;28;20227;-77
2023/06/13 10:31:53;;;;;;;5.95;4.35;;;39.10;1.00;;;;;;5019954;28;20259;-75
2023/06/13 10:34:48;;;;;;;5.30;3.80;;;38.70;1.00;;;;;;5019953;28;20770;-78
2023/06/13 10:37:19;;;;;;;5.85;4.45;;;38.20;1.00;;;;;;5026083;28;20193;-76
2023/06/13 10:40:15;;;;;;;5.40;4.30;;;37.70;1.00;;;;;;5028101;28;20184;-78
2023/06/13 10:42:47;;;;;;;5.72;4.95;;;37.70;1.00;;;;;;5027184;28;20552;-78
2023/06/13 10:45:24;;;;;;;5.68;4.32;;;37.70;1.00;;;;;;5025720;28;20252;-75
2023/06/13 10:47:50;;;;;;;6.90;4.40;;;38.10;1.00;;;;;;5029753;28;20184;-77
2023/06/13 10:50:16;;;;;;;7.15;4.30;;;39.10;1.00;;;;;;5025651;28;20264;-77
2023/06/13 10:52:52;;;;;;;6.63;4.25;;;39.10;1.00;;;;;;5023968;28;20326;-76
2023/06/13 10:55:26;;;;;;;6.30;4.38;;;38.70;1.00;;;;;;5028899;28;20209;-76
2023/06/13 10:57:53;;;;;;;8.82;4.40;;;39.10;1.00;;;;;;5024477;28;20288;-76
2023/06/13 11:00:27;;;;;;;11.25;4.57;;;39.30;1.00;;;;;;5027165;28;20602;-76
2023/06/13 11:03:12;;;;;;;5.43;4.28;;;40.20;1.00;;;;;;5023869;28;20560;-76
2023/06/13 11:05:44;;;;;;;8.38;4.47;;;41.00;1.00;;;;;;5023801;28;20209;-77
2023/06/13 11:08:18;;;;;;;7.18;4.30;;;41.40;1.00;;;;;;5024805;28;20185;-77
2023/06/13 11:10:46;;;;;;;8.10;4.22;;;41.50;1.00;;;;;;5026261;28;20675;-77
2023/06/13 11:13:26;;;;;;;7.50;4.20;;;41.80;1.00;;;;;;5028562;28;20674;-76
2023/06/13 11:15:56;;;;;;;7.47;4.40;;;41.50;1.00;;;;;;5027434;28;20209;-78
2023/06/13 11:18:22;;;;;;;6.05;4.25;;;41.50;1.00;;;;;;5025587;28;21219;-76
2023/06/13 11:20:51;;;;;;;9.15;4.50;;;41.90;1.00;;;;;;5028514;28;20269;-78
2023/06/13 11:23:24;;;;;;;8.45;4.18;;;42.40;1.00;;;;;;5026648;28;20224;-79
2023/06/13 11:25:50;;;;;;;14.75;4.53;;;42.30;1.00;;;;;;5027154;28;20204;-77
2023/06/13 11:28:18;;;;;;;5.90;4.45;;;42.10;1.00;;;;;;5028836;28;20188;-76
2023/06/13 11:30:45;;;;;;;6.25;4.07;;;41.60;1.00;;;;;;5028567;28;20188;-77
2023/06/13 11:33:12;;;;;;;6.03;4.57;;;41.50;1.00;;;;;;5026962;28;20200;-76
2023/06/13 11:35:41;;;;;;;5.70;4.45;;;41.60;1.00;;;;;;5027563;28;20687;-79
2023/06/13 11:38:18;;;;;;;10.27;4.70;;;41.80;1.00;;;;;;5025641;28;20197;-78
2023/06/13 11:40:46;;;;;;;10.80;4.95;;;41.10;1.00;;;;;;5024171;28;20181;-76
2023/06/13 11:43:13;;;;;;;8.82;4.78;;;41.00;1.00;;;;;;5025947;28;20292;-80
2023/06/13 11:45:39;;;;;;;6.45;4.65;;;40.70;1.00;;;;;;5029117;28;20284;-77
2023/06/13 11:48:04;;;;;;;8.88;4.88;;;40.20;1.00;;;;;;5025776;28;20590;-74
2023/06/13 11:50:32;;;;;;;7.05;4.50;;;40.60;1.00;;;;;;5027906;28;20243;-76
2023/06/13 11:53:05;;;;;;;5.90;4.38;;;40.90;1.00;;;;;;5018265;28;20575;-76
2023/06/13 11:55:31;;;;;;;7.57;4.57;;;40.90;1.00;;;;;;5018868;28;20244;-78
2023/06/13 11:57:56;;;;;;;5.60;4.40;;;40.30;1.00;;;;;;5020545;28;20212;-77
2023/06/13 12:00:26;;;;;;;10.00;4.55;;;40.30;1.00;;;;;;5041224;28;20189;-76
2023/06/13 12:02:52;;;;;;;9.70;4.35;;;39.90;1.00;;;;;;5027779;28;20200;-79
2023/06/13 12:05:18;;;;;;;9.55;4.10;;;40.10;1.00;;;;;;5026227;28;20238;-78
2023/06/13 12:07:45;;;;;;;5.97;4.13;;;40.40;1.00;;;;;;5027295;28;20185;-80
2023/06/13 12:10:12;;;;;;;5.07;4.28;;;40.70;1.00;;;;;;5031089;28;20181;-77
2023/06/13 12:12:37;;;;;;;10.18;4.53;;;41.70;1.00;;;;;;5031918;28;20231;-79
2023/06/13 12:15:03;;;;;;;7.25;4.43;;;42.00;1.00;;;;;;5028342;28;20208;-77
2023/06/13 12:17:29;;;;;;;12.73;4.20;;;41.40;1.00;;;;;;5029433;28;20189;-78
2023/06/13 12:20:12;;;;;;;6.82;4.40;;;40.80;1.00;;;;;;5030545;28;20212;-77
2023/06/13 12:22:38;;;;;;;7.60;4.35;;;40.30;1.00;;;;;;5028162;28;20181;-77
2023/06/13 12:25:04;;;;;;;12.93;4.30;;;40.10;1.00;;;;;;5027229;28;20248;-78
2023/06/13 12:27:31;;;;;;;5.28;4.38;;;41.30;1.00;;;;;;5027954;28;20189;-78
2023/06/13 12:30:12;;;;;;;4.80;3.90;;;41.60;1.00;;;;;;5029988;28;20177;-80
2023/06/13 12:32:43;;;;;;;6.80;4.32;;;41.00;1.00;;;;;;5025107;28;20264;-81
2023/06/13 12:35:09;;;;;;;9.15;4.40;;;41.10;1.00;;;;;;5030142;28;20301;-75
2023/06/13 12:37:37;;;;;;;11.48;4.25;;;40.40;1.00;;;;;;5032137;28;20648;-76
2023/06/13 12:40:10;;;;;;;7.85;4.60;;;39.30;1.00;;;;;;5031347;28;20268;-79
2023/06/13 12:42:36;;;;;;;5.15;4.30;;;39.20;1.00;;;;;;5027346;28;20268;-76
2023/06/13 12:45:02;;;;;;;7.43;4.60;;;39.60;1.00;;;;;;5028382;28;20284;-75
2023/06/13 12:47:28;;;;;;;7.22;4.20;;;39.10;1.00;;;;;;5028475;28;20675;-73
2023/06/13 12:50:06;;;;;;;10.85;4.40;;;40.10;1.00;;;;;;5027306;28;20200;-77
2023/06/13 12:52:32;;;;;;;5.78;4.38;;;40.30;1.00;;;;;;5029498;28;20238;-76
2023/06/13 12:55:01;;;;;;;8.82;4.28;;;40.10;1.00;;;;;;5029691;28;20364;-77
2023/06/13 12:57:27;;;;;;;9.98;4.10;;;40.30;1.00;;;;;;5031009;28;20185;-77